sensor_id;sensor_type;location;lat;lon;timestamp;pressure;altitude;pressure_sealevel;temperature
68952;BMP180;56000;51.146;17.112;2023-04-24T00:01:55;99226.80;;;13.40
68952;BMP180;56000;51.146;17.112;2023-04-24T00:04:30;99229.20;;;13.40
68952;BMP180;56000;51.146;17.112;2023-04-24T00:07:03;99226.00;;;13.40
68952;BMP180;56000;51.146;17.112;2023-04-24T00:09:38;99224.20;;;13.40
68952;BMP180;56000;51.146;17.112;2023-04-24T00:12:12;99217.20;;;13.40
68952;BMP180;56000;51.146;17.112;2023-04-24T00:14:45;99214.40;;;13.38
68952;BMP180;56000;51.146;17.112;2023-04-24T00:17:18;99212.40;;;13.36
68952;BMP180;56000;51.146;17.112;2023-04-24T00:19:52;99205.80;;;13.34
68952;BMP180;56000;51.146;17.112;2023-04-24T00:22:30;99205.00;;;13.32
68952;BMP180;56000;51.146;17.112;2023-04-24T00:25:04;99201.00;;;13.30
68952;BMP180;56000;51.146;17.112;2023-04-24T00:27:37;99198.80;;;13.30
68952;BMP180;56000;51.146;17.112;2023-04-24T00:30:12;99194.40;;;13.30
68952;BMP180;56000;51.146;17.112;2023-04-24T00:32:45;99191.80;;;13.30
68952;BMP180;56000;51.146;17.112;2023-04-24T00:35:18;99191.60;;;13.30
68952;BMP180;56000;51.146;17.112;2023-04-24T00:37:52;99180.60;;;13.30
68952;BMP180;56000;51.146;17.112;2023-04-24T00:40:26;99178.20;;;13.30
68952;BMP180;56000;51.146;17.112;2023-04-24T00:43:00;99177.00;;;13.30
68952;BMP180;56000;51.146;17.112;2023-04-24T00:45:33;99176.20;;;13.30
68952;BMP180;56000;51.146;17.112;2023-04-24T00:48:07;99175.40;;;13.30
68952;BMP180;56000;51.146;17.112;2023-04-24T00:50:40;99178.80;;;13.30
68952;BMP180;56000;51.146;17.112;2023-04-24T00:53:14;99172.00;;;13.30
68952;BMP180;56000;51.146;17.112;2023-04-24T00:55:47;99174.60;;;13.30
68952;BMP180;56000;51.146;17.112;2023-04-24T00:58:21;99178.00;;;13.30
68952;BMP180;56000;51.146;17.112;2023-04-24T01:00:55;99178.00;;;13.30
68952;BMP180;56000;51.146;17.112;2023-04-24T01:03:30;99180.20;;;13.30
68952;BMP180;56000;51.146;17.112;2023-04-24T01:06:05;99168.40;;;13.30
68952;BMP180;56000;51.146;17.112;2023-04-24T01:08:40;99174.80;;;13.28
68952;BMP180;56000;51.146;17.112;2023-04-24T01:11:14;99173.40;;;13.24
68952;BMP180;56000;51.146;17.112;2023-04-24T01:13:48;99172.60;;;13.20
68952;BMP180;56000;51.146;17.112;2023-04-24T01:16:21;99161.20;;;13.20
68952;BMP180;56000;51.146;17.112;2023-04-24T01:18:55;99163.20;;;13.20
68952;BMP180;56000;51.146;17.112;2023-04-24T01:21:30;99163.20;;;13.20
68952;BMP180;56000;51.146;17.112;2023-04-24T01:24:08;99162.80;;;13.20
68952;BMP180;56000;51.146;17.112;2023-04-24T01:26:42;99158.40;;;13.20
68952;BMP180;56000;51.146;17.112;2023-04-24T01:29:15;99161.80;;;13.20
68952;BMP180;56000;51.146;17.112;2023-04-24T01:31:48;99155.20;;;13.20
68952;BMP180;56000;51.146;17.112;2023-04-24T01:34:22;99151.80;;;13.20
68952;BMP180;56000;51.146;17.112;2023-04-24T01:36:55;99150.80;;;13.20
68952;BMP180;56000;51.146;17.112;2023-04-24T01:39:29;99147.80;;;13.20
68952;BMP180;56000;51.146;17.112;2023-04-24T01:42:03;99146.00;;;13.20
68952;BMP180;56000;51.146;17.112;2023-04-24T01:44:37;99144.20;;;13.20
68952;BMP180;56000;51.146;17.112;2023-04-24T01:47:11;99141.60;;;13.20
68952;BMP180;56000;51.146;17.112;2023-04-24T01:49:44;99141.80;;;13.20
68952;BMP180;56000;51.146;17.112;2023-04-24T01:52:18;99140.40;;;13.20
68952;BMP180;56000;51.146;17.112;2023-04-24T01:54:51;99140.40;;;13.20
68952;BMP180;56000;51.146;17.112;2023-04-24T01:57:25;99137.80;;;13.16
68952;BMP180;56000;51.146;17.112;2023-04-24T01:59:58;99139.60;;;13.10
68952;BMP180;56000;51.146;17.112;2023-04-24T02:02:33;99139.20;;;13.10
68952;BMP180;56000;51.146;17.112;2023-04-24T02:05:09;99138.80;;;13.10
68952;BMP180;56000;51.146;17.112;2023-04-24T02:07:42;99139.80;;;13.10
68952;BMP180;56000;51.146;17.112;2023-04-24T02:10:15;99137.20;;;13.10
68952;BMP180;56000;51.146;17.112;2023-04-24T02:12:48;99137.00;;;13.10
68952;BMP180;56000;51.146;17.112;2023-04-24T02:15:21;99137.00;;;13.10
68952;BMP180;56000;51.146;17.112;2023-04-24T02:17:55;99131.60;;;13.10
68952;BMP180;56000;51.146;17.112;2023-04-24T02:20:28;99133.00;;;13.10
68952;BMP180;56000;51.146;17.112;2023-04-24T02:23:04;99134.60;;;13.10
68952;BMP180;56000;51.146;17.112;2023-04-24T02:25:37;99136.00;;;13.10
68952;BMP180;56000;51.146;17.112;2023-04-24T02:28:10;99131.40;;;13.10
68952;BMP180;56000;51.146;17.112;2023-04-24T02:30:43;99120.00;;;13.10
68952;BMP180;56000;51.146;17.112;2023-04-24T02:33:16;99120.20;;;13.10
68952;BMP180;56000;51.146;17.112;2023-04-24T02:35:49;99111.40;;;13.10
68952;BMP180;56000;51.146;17.112;2023-04-24T02:38:22;99110.20;;;13.00
68952;BMP180;56000;51.146;17.112;2023-04-24T02:40:55;99104.60;;;13.00
68952;BMP180;56000;51.146;17.112;2023-04-24T02:43:30;99107.00;;;13.00
68952;BMP180;56000;51.146;17.112;2023-04-24T02:46:03;99096.80;;;13.00
68952;BMP180;56000;51.146;17.112;2023-04-24T02:48:36;99090.80;;;13.00
68952;BMP180;56000;51.146;17.112;2023-04-24T02:51:10;99091.40;;;12.92
68952;BMP180;56000;51.146;17.112;2023-04-24T02:53:43;99088.20;;;12.90
68952;BMP180;56000;51.146;17.112;2023-04-24T02:56:16;99084.40;;;12.90
68952;BMP180;56000;51.146;17.112;2023-04-24T02:58:49;99087.60;;;12.90
68952;BMP180;56000;51.146;17.112;2023-04-24T03:01:22;99079.20;;;12.94
68952;BMP180;56000;51.146;17.112;2023-04-24T03:03:55;99078.20;;;13.00
68952;BMP180;56000;51.146;17.112;2023-04-24T03:06:28;99074.20;;;13.00
68952;BMP180;56000;51.146;17.112;2023-04-24T03:09:02;99078.00;;;13.00
68952;BMP180;56000;51.146;17.112;2023-04-24T03:11:36;99070.60;;;13.06
68952;BMP180;56000;51.146;17.112;2023-04-24T03:14:12;99070.40;;;13.10
68952;BMP180;56000;51.146;17.112;2023-04-24T03:16:46;99068.40;;;13.10
68952;BMP180;56000;51.146;17.112;2023-04-24T03:19:18;99065.20;;;13.10
68952;BMP180;56000;51.146;17.112;2023-04-24T03:22:02;99069.40;;;13.10
68952;BMP180;56000;51.146;17.112;2023-04-24T03:24:36;99075.80;;;13.10
68952;BMP180;56000;51.146;17.112;2023-04-24T03:27:10;99074.20;;;13.10
68952;BMP180;56000;51.146;17.112;2023-04-24T03:29:59;99083.00;;;13.10
68952;BMP180;56000;51.146;17.112;2023-04-24T03:32:51;99078.20;;;13.10
68952;BMP180;56000;51.146;17.112;2023-04-24T03:35:28;99084.80;;;13.10
68952;BMP180;56000;51.146;17.112;2023-04-24T03:38:04;99087.00;;;13.08
68952;BMP180;56000;51.146;17.112;2023-04-24T03:40:46;99090.00;;;13.08
68952;BMP180;56000;51.146;17.112;2023-04-24T03:43:29;99090.00;;;13.10
68952;BMP180;56000;51.146;17.112;2023-04-24T03:46:05;99086.40;;;13.00
68952;BMP180;56000;51.146;17.112;2023-04-24T03:48:41;99093.20;;;13.00
68952;BMP180;56000;51.146;17.112;2023-04-24T03:51:14;99091.20;;;12.98
68952;BMP180;56000;51.146;17.112;2023-04-24T03:53:49;99092.40;;;12.90
68952;BMP180;56000;51.146;17.112;2023-04-24T03:56:23;99091.60;;;12.90
68952;BMP180;56000;51.146;17.112;2023-04-24T03:58:56;99096.80;;;12.88
68952;BMP180;56000;51.146;17.112;2023-04-24T04:01:29;99091.80;;;12.86
68952;BMP180;56000;51.146;17.112;2023-04-24T04:04:06;99097.20;;;12.80
68952;BMP180;56000;51.146;17.112;2023-04-24T04:06:40;99095.60;;;12.80
68952;BMP180;56000;51.146;17.112;2023-04-24T04:09:14;99096.60;;;12.80
68952;BMP180;56000;51.146;17.112;2023-04-24T04:11:46;99094.80;;;12.80
68952;BMP180;56000;51.146;17.112;2023-04-24T04:14:19;99099.40;;;12.80
68952;BMP180;56000;51.146;17.112;2023-04-24T04:16:52;99096.80;;;12.80
68952;BMP180;56000;51.146;17.112;2023-04-24T04:19:26;99096.80;;;12.80
68952;BMP180;56000;51.146;17.112;2023-04-24T04:21:59;99090.80;;;12.80
68952;BMP180;56000;51.146;17.112;2023-04-24T04:24:45;99092.00;;;12.80
68952;BMP180;56000;51.146;17.112;2023-04-24T04:27:18;99088.20;;;12.80
68952;BMP180;56000;51.146;17.112;2023-04-24T04:30:06;99092.00;;;12.90
68952;BMP180;56000;51.146;17.112;2023-04-24T04:32:50;99089.40;;;12.90
68952;BMP180;56000;51.146;17.112;2023-04-24T04:35:25;99084.40;;;12.92
68952;BMP180;56000;51.146;17.112;2023-04-24T04:37:58;99082.60;;;13.00
68952;BMP180;56000;51.146;17.112;2023-04-24T04:41:03;99083.00;;;13.10
68952;BMP180;56000;51.146;17.112;2023-04-24T04:43:37;99088.20;;;13.28
68952;BMP180;56000;51.146;17.112;2023-04-24T04:46:12;99083.60;;;13.40
68952;BMP180;56000;51.146;17.112;2023-04-24T04:48:52;99077.80;;;13.50
68952;BMP180;56000;51.146;17.112;2023-04-24T04:51:25;99084.00;;;13.60
68952;BMP180;56000;51.146;17.112;2023-04-24T04:53:59;99085.80;;;13.70
68952;BMP180;56000;51.146;17.112;2023-04-24T04:56:32;99088.80;;;13.80
68952;BMP180;56000;51.146;17.112;2023-04-24T04:59:05;99085.40;;;13.90
68952;BMP180;56000;51.146;17.112;2023-04-24T05:01:40;99088.20;;;14.00
68952;BMP180;56000;51.146;17.112;2023-04-24T05:04:13;99087.40;;;14.10
68952;BMP180;56000;51.146;17.112;2023-04-24T05:06:47;99090.40;;;14.10
68952;BMP180;56000;51.146;17.112;2023-04-24T05:09:22;99085.60;;;14.26
68952;BMP180;56000;51.146;17.112;2023-04-24T05:12:02;99086.20;;;14.50
68952;BMP180;56000;51.146;17.112;2023-04-24T05:14:37;99086.20;;;14.60
68952;BMP180;56000;51.146;17.112;2023-04-24T05:17:11;99092.00;;;14.70
68952;BMP180;56000;51.146;17.112;2023-04-24T05:19:45;99089.00;;;14.88
68952;BMP180;56000;51.146;17.112;2023-04-24T05:22:18;99078.80;;;15.26
68952;BMP180;56000;51.146;17.112;2023-04-24T05:24:54;99089.40;;;15.42
68952;BMP180;56000;51.146;17.112;2023-04-24T05:27:38;99078.60;;;15.54
68952;BMP180;56000;51.146;17.112;2023-04-24T05:30:16;99080.60;;;15.50
68952;BMP180;56000;51.146;17.112;2023-04-24T05:32:49;99087.80;;;15.50
68952;BMP180;56000;51.146;17.112;2023-04-24T05:35:22;99090.00;;;15.40
68952;BMP180;56000;51.146;17.112;2023-04-24T05:37:55;99084.20;;;15.40
68952;BMP180;56000;51.146;17.112;2023-04-24T05:40:28;99084.20;;;15.40
68952;BMP180;56000;51.146;17.112;2023-04-24T05:43:01;99086.00;;;15.40
68952;BMP180;56000;51.146;17.112;2023-04-24T05:45:35;99087.60;;;15.40
68952;BMP180;56000;51.146;17.112;2023-04-24T05:48:08;99094.60;;;15.44
68952;BMP180;56000;51.146;17.112;2023-04-24T05:50:41;99088.00;;;15.50
68952;BMP180;56000;51.146;17.112;2023-04-24T05:53:15;99091.60;;;15.60
68952;BMP180;56000;51.146;17.112;2023-04-24T05:55:49;99085.40;;;15.62
68952;BMP180;56000;51.146;17.112;2023-04-24T05:58:22;99088.80;;;15.70
68952;BMP180;56000;51.146;17.112;2023-04-24T06:00:56;99093.40;;;15.80
68952;BMP180;56000;51.146;17.112;2023-04-24T06:03:30;99095.00;;;15.90
68952;BMP180;56000;51.146;17.112;2023-04-24T06:06:03;99096.80;;;16.00
68952;BMP180;56000;51.146;17.112;2023-04-24T06:08:37;99098.00;;;16.06
68952;BMP180;56000;51.146;17.112;2023-04-24T06:11:10;99105.80;;;16.10
68952;BMP180;56000;51.146;17.112;2023-04-24T06:13:43;99102.00;;;16.22
68952;BMP180;56000;51.146;17.112;2023-04-24T06:16:49;99099.40;;;16.40
68952;BMP180;56000;51.146;17.112;2023-04-24T06:19:34;99101.80;;;16.50
68952;BMP180;56000;51.146;17.112;2023-04-24T06:22:07;99099.00;;;16.70
68952;BMP180;56000;51.146;17.112;2023-04-24T06:24:42;99097.60;;;16.90
68952;BMP180;56000;51.146;17.112;2023-04-24T06:27:15;99095.40;;;17.00
68952;BMP180;56000;51.146;17.112;2023-04-24T06:29:48;99098.20;;;17.10
68952;BMP180;56000;51.146;17.112;2023-04-24T06:32:26;99103.40;;;17.10
68952;BMP180;56000;51.146;17.112;2023-04-24T06:34:59;99106.20;;;17.10
68952;BMP180;56000;51.146;17.112;2023-04-24T06:37:33;99106.40;;;17.06
68952;BMP180;56000;51.146;17.112;2023-04-24T06:40:08;99106.20;;;17.00
68952;BMP180;56000;51.146;17.112;2023-04-24T06:42:41;99107.20;;;16.90
68952;BMP180;56000;51.146;17.112;2023-04-24T06:45:14;99107.80;;;16.80
68952;BMP180;56000;51.146;17.112;2023-04-24T06:47:48;99107.60;;;16.70
68952;BMP180;56000;51.146;17.112;2023-04-24T06:50:21;99108.80;;;16.70
68952;BMP180;56000;51.146;17.112;2023-04-24T06:52:54;99112.60;;;16.60
68952;BMP180;56000;51.146;17.112;2023-04-24T06:55:27;99107.80;;;16.60
68952;BMP180;56000;51.146;17.112;2023-04-24T06:58:00;99106.60;;;16.60
68952;BMP180;56000;51.146;17.112;2023-04-24T07:00:33;99105.80;;;16.60
68952;BMP180;56000;51.146;17.112;2023-04-24T07:03:07;99108.20;;;16.62
68952;BMP180;56000;51.146;17.112;2023-04-24T07:05:40;99106.20;;;16.70
68952;BMP180;56000;51.146;17.112;2023-04-24T07:08:14;99104.40;;;16.80
68952;BMP180;56000;51.146;17.112;2023-04-24T07:10:48;99105.00;;;16.80
68952;BMP180;56000;51.146;17.112;2023-04-24T07:13:22;99109.00;;;16.86
68952;BMP180;56000;51.146;17.112;2023-04-24T07:15:56;99108.40;;;16.94
68952;BMP180;56000;51.146;17.112;2023-04-24T07:18:29;99110.20;;;17.12
68952;BMP180;56000;51.146;17.112;2023-04-24T07:21:02;99114.00;;;17.30
68952;BMP180;56000;51.146;17.112;2023-04-24T07:23:35;99113.20;;;17.50
68952;BMP180;56000;51.146;17.112;2023-04-24T07:26:08;99120.40;;;17.60
68952;BMP180;56000;51.146;17.112;2023-04-24T07:28:41;99111.00;;;17.70
68952;BMP180;56000;51.146;17.112;2023-04-24T07:31:15;99110.40;;;17.80
68952;BMP180;56000;51.146;17.112;2023-04-24T07:33:48;99111.60;;;17.90
68952;BMP180;56000;51.146;17.112;2023-04-24T07:36:21;99112.20;;;18.06
68952;BMP180;56000;51.146;17.112;2023-04-24T07:38:55;99108.00;;;18.20
68952;BMP180;56000;51.146;17.112;2023-04-24T07:41:29;99109.80;;;18.50
68952;BMP180;56000;51.146;17.112;2023-04-24T07:44:02;99108.80;;;18.84
68952;BMP180;56000;51.146;17.112;2023-04-24T07:46:35;99113.60;;;19.20
68952;BMP180;56000;51.146;17.112;2023-04-24T07:49:08;99118.40;;;19.48
68952;BMP180;56000;51.146;17.112;2023-04-24T07:51:44;99118.80;;;19.60
68952;BMP180;56000;51.146;17.112;2023-04-24T07:54:17;99109.60;;;19.70
68952;BMP180;56000;51.146;17.112;2023-04-24T07:56:51;99113.60;;;19.60
68952;BMP180;56000;51.146;17.112;2023-04-24T07:59:24;99115.80;;;19.60
68952;BMP180;56000;51.146;17.112;2023-04-24T08:01:57;99116.80;;;19.50
68952;BMP180;56000;51.146;17.112;2023-04-24T08:04:30;99117.00;;;19.38
68952;BMP180;56000;51.146;17.112;2023-04-24T08:07:04;99121.20;;;19.20
68952;BMP180;56000;51.146;17.112;2023-04-24T08:09:37;99123.20;;;19.20
68952;BMP180;56000;51.146;17.112;2023-04-24T08:12:10;99119.00;;;19.10
68952;BMP180;56000;51.146;17.112;2023-04-24T08:14:43;99117.60;;;19.00
68952;BMP180;56000;51.146;17.112;2023-04-24T08:17:17;99124.40;;;18.92
68952;BMP180;56000;51.146;17.112;2023-04-24T08:19:50;99125.00;;;18.80
68952;BMP180;56000;51.146;17.112;2023-04-24T08:22:24;99130.20;;;18.70
68952;BMP180;56000;51.146;17.112;2023-04-24T08:24:59;99129.00;;;18.60
68952;BMP180;56000;51.146;17.112;2023-04-24T08:27:33;99130.20;;;18.40
68952;BMP180;56000;51.146;17.112;2023-04-24T08:30:08;99129.60;;;18.30
68952;BMP180;56000;51.146;17.112;2023-04-24T08:32:41;99133.60;;;18.10
68952;BMP180;56000;51.146;17.112;2023-04-24T08:35:14;99142.80;;;18.00
68952;BMP180;56000;51.146;17.112;2023-04-24T08:37:47;99142.80;;;17.90
68952;BMP180;56000;51.146;17.112;2023-04-24T08:40:27;99137.80;;;17.80
68952;BMP180;56000;51.146;17.112;2023-04-24T08:43:02;99131.20;;;17.80
68952;BMP180;56000;51.146;17.112;2023-04-24T08:45:36;99120.60;;;17.90
68952;BMP180;56000;51.146;17.112;2023-04-24T08:48:11;99133.60;;;18.00
68952;BMP180;56000;51.146;17.112;2023-04-24T08:51:01;99135.60;;;18.20
68952;BMP180;56000;51.146;17.112;2023-04-24T08:53:36;99134.00;;;18.56
68952;BMP180;56000;51.146;17.112;2023-04-24T08:56:09;99137.00;;;19.14
68952;BMP180;56000;51.146;17.112;2023-04-24T08:58:44;99131.00;;;20.06
68952;BMP180;56000;51.146;17.112;2023-04-24T09:01:17;99130.40;;;20.86
68952;BMP180;56000;51.146;17.112;2023-04-24T09:03:51;99130.20;;;21.56
68952;BMP180;56000;51.146;17.112;2023-04-24T09:06:26;99135.80;;;22.10
68952;BMP180;56000;51.146;17.112;2023-04-24T09:09:01;99138.20;;;22.20
68952;BMP180;56000;51.146;17.112;2023-04-24T09:11:35;99134.60;;;22.20
68952;BMP180;56000;51.146;17.112;2023-04-24T09:14:10;99133.40;;;22.10
68952;BMP180;56000;51.146;17.112;2023-04-24T09:16:44;99134.60;;;22.10
68952;BMP180;56000;51.146;17.112;2023-04-24T09:19:18;99129.60;;;22.30
68952;BMP180;56000;51.146;17.112;2023-04-24T09:21:54;99131.00;;;22.82
68952;BMP180;56000;51.146;17.112;2023-04-24T09:24:27;99126.60;;;23.42
68952;BMP180;56000;51.146;17.112;2023-04-24T09:27:01;99122.80;;;23.80
68952;BMP180;56000;51.146;17.112;2023-04-24T09:29:34;99125.20;;;24.10
68952;BMP180;56000;51.146;17.112;2023-04-24T09:35:14;99121.40;;;23.58
68952;BMP180;56000;51.146;17.112;2023-04-24T09:37:48;99116.40;;;23.40
68952;BMP180;56000;51.146;17.112;2023-04-24T09:40:24;99121.40;;;23.40
68952;BMP180;56000;51.146;17.112;2023-04-24T09:42:58;99122.60;;;23.38
68952;BMP180;56000;51.146;17.112;2023-04-24T09:45:38;99114.00;;;23.10
68952;BMP180;56000;51.146;17.112;2023-04-24T09:48:13;99115.80;;;23.00
68952;BMP180;56000;51.146;17.112;2023-04-24T09:50:53;99118.80;;;22.70
68952;BMP180;56000;51.146;17.112;2023-04-24T09:53:29;99114.00;;;22.30
68952;BMP180;56000;51.146;17.112;2023-04-24T09:56:10;99110.40;;;22.10
68952;BMP180;56000;51.146;17.112;2023-04-24T09:58:44;99107.00;;;22.00
68952;BMP180;56000;51.146;17.112;2023-04-24T10:01:31;99101.80;;;22.00
68952;BMP180;56000;51.146;17.112;2023-04-24T10:04:05;99101.20;;;22.00
68952;BMP180;56000;51.146;17.112;2023-04-24T10:06:39;99099.40;;;21.80
68952;BMP180;56000;51.146;17.112;2023-04-24T10:09:15;99093.00;;;21.70
68952;BMP180;56000;51.146;17.112;2023-04-24T10:11:49;99088.80;;;21.60
68952;BMP180;56000;51.146;17.112;2023-04-24T10:14:24;99094.60;;;21.30
68952;BMP180;56000;51.146;17.112;2023-04-24T10:16:57;99095.00;;;21.16
68952;BMP180;56000;51.146;17.112;2023-04-24T10:19:31;99099.40;;;21.02
68952;BMP180;56000;51.146;17.112;2023-04-24T10:22:06;99102.80;;;21.02
68952;BMP180;56000;51.146;17.112;2023-04-24T10:24:39;99105.20;;;20.98
68952;BMP180;56000;51.146;17.112;2023-04-24T10:27:14;99105.20;;;20.70
68952;BMP180;56000;51.146;17.112;2023-04-24T10:29:48;99109.00;;;20.44
68952;BMP180;56000;51.146;17.112;2023-04-24T10:32:22;99111.60;;;20.30
68952;BMP180;56000;51.146;17.112;2023-04-24T10:34:55;99104.20;;;20.20
68952;BMP180;56000;51.146;17.112;2023-04-24T10:37:29;99097.60;;;20.10
68952;BMP180;56000;51.146;17.112;2023-04-24T10:40:10;99100.00;;;20.10
68952;BMP180;56000;51.146;17.112;2023-04-24T10:42:48;99100.80;;;20.30
68952;BMP180;56000;51.146;17.112;2023-04-24T10:45:27;99105.60;;;20.50
68952;BMP180;56000;51.146;17.112;2023-04-24T10:48:05;99109.40;;;20.62
68952;BMP180;56000;51.146;17.112;2023-04-24T10:50:52;99108.80;;;20.70
68952;BMP180;56000;51.146;17.112;2023-04-24T10:53:29;99117.80;;;20.50
68952;BMP180;56000;51.146;17.112;2023-04-24T10:56:06;99117.00;;;20.40
68952;BMP180;56000;51.146;17.112;2023-04-24T10:58:43;99110.20;;;20.40
68952;BMP180;56000;51.146;17.112;2023-04-24T11:01:28;99108.40;;;20.30
68952;BMP180;56000;51.146;17.112;2023-04-24T11:04:03;99116.00;;;19.94
68952;BMP180;56000;51.146;17.112;2023-04-24T11:06:37;99117.00;;;19.70
68952;BMP180;56000;51.146;17.112;2023-04-24T11:09:12;99115.60;;;19.50
68952;BMP180;56000;51.146;17.112;2023-04-24T11:11:49;99117.60;;;19.40
68952;BMP180;56000;51.146;17.112;2023-04-24T11:14:22;99113.80;;;19.40
68952;BMP180;56000;51.146;17.112;2023-04-24T11:16:56;99115.40;;;19.58
68952;BMP180;56000;51.146;17.112;2023-04-24T11:19:29;99108.60;;;20.00
68952;BMP180;56000;51.146;17.112;2023-04-24T11:22:04;99111.60;;;20.30
68952;BMP180;56000;51.146;17.112;2023-04-24T11:24:50;99116.00;;;20.40
68952;BMP180;56000;51.146;17.112;2023-04-24T11:27:31;99113.40;;;20.60
68952;BMP180;56000;51.146;17.112;2023-04-24T11:30:08;99116.60;;;20.94
68952;BMP180;56000;51.146;17.112;2023-04-24T11:32:43;99111.00;;;21.12
68952;BMP180;56000;51.146;17.112;2023-04-24T11:35:19;99110.60;;;21.40
68952;BMP180;56000;51.146;17.112;2023-04-24T11:37:55;99108.40;;;21.66
68952;BMP180;56000;51.146;17.112;2023-04-24T11:40:31;99107.80;;;21.84
68952;BMP180;56000;51.146;17.112;2023-04-24T11:43:05;99113.40;;;22.06
68952;BMP180;56000;51.146;17.112;2023-04-24T11:45:38;99111.80;;;22.30
68952;BMP180;56000;51.146;17.112;2023-04-24T11:48:23;99115.00;;;22.40
68952;BMP180;56000;51.146;17.112;2023-04-24T11:50:56;99111.60;;;22.40
68952;BMP180;56000;51.146;17.112;2023-04-24T11:53:29;99111.20;;;22.50
68952;BMP180;56000;51.146;17.112;2023-04-24T11:56:07;99108.80;;;22.30
68952;BMP180;56000;51.146;17.112;2023-04-24T11:58:41;99108.20;;;22.10
68952;BMP180;56000;51.146;17.112;2023-04-24T12:01:14;99103.80;;;21.80
68952;BMP180;56000;51.146;17.112;2023-04-24T12:03:58;99104.20;;;21.60
68952;BMP180;56000;51.146;17.112;2023-04-24T12:06:32;99102.00;;;21.24
68952;BMP180;56000;51.146;17.112;2023-04-24T12:09:06;99104.40;;;21.00
68952;BMP180;56000;51.146;17.112;2023-04-24T12:11:57;99101.60;;;20.78
68952;BMP180;56000;51.146;17.112;2023-04-24T12:14:30;99102.20;;;20.50
68952;BMP180;56000;51.146;17.112;2023-04-24T12:17:04;99102.40;;;20.10
68952;BMP180;56000;51.146;17.112;2023-04-24T12:19:37;99100.80;;;19.84
68952;BMP180;56000;51.146;17.112;2023-04-24T12:22:10;99098.20;;;19.50
68952;BMP180;56000;51.146;17.112;2023-04-24T12:25:02;99094.20;;;19.30
68952;BMP180;56000;51.146;17.112;2023-04-24T12:27:35;99096.00;;;19.10
68952;BMP180;56000;51.146;17.112;2023-04-24T12:30:13;99091.80;;;18.90
68952;BMP180;56000;51.146;17.112;2023-04-24T12:32:48;99099.20;;;18.70
68952;BMP180;56000;51.146;17.112;2023-04-24T12:35:25;99098.00;;;18.60
68952;BMP180;56000;51.146;17.112;2023-04-24T12:38:06;99096.40;;;18.60
68952;BMP180;56000;51.146;17.112;2023-04-24T12:40:40;99095.60;;;18.60
68952;BMP180;56000;51.146;17.112;2023-04-24T12:43:20;99095.80;;;18.60
68952;BMP180;56000;51.146;17.112;2023-04-24T12:45:55;99091.00;;;18.60
68952;BMP180;56000;51.146;17.112;2023-04-24T12:48:29;99092.20;;;18.50
68952;BMP180;56000;51.146;17.112;2023-04-24T12:51:02;99093.40;;;18.40
68952;BMP180;56000;51.146;17.112;2023-04-24T12:53:36;99089.60;;;18.30
68952;BMP180;56000;51.146;17.112;2023-04-24T12:56:09;99091.20;;;18.10
68952;BMP180;56000;51.146;17.112;2023-04-24T12:58:42;99087.60;;;17.90
68952;BMP180;56000;51.146;17.112;2023-04-24T13:01:15;99087.80;;;17.80
68952;BMP180;56000;51.146;17.112;2023-04-24T13:03:49;99089.00;;;17.60
68952;BMP180;56000;51.146;17.112;2023-04-24T13:06:23;99080.20;;;17.50
68952;BMP180;56000;51.146;17.112;2023-04-24T13:08:56;99080.60;;;17.40
68952;BMP180;56000;51.146;17.112;2023-04-24T13:11:30;99082.60;;;17.30
68952;BMP180;56000;51.146;17.112;2023-04-24T13:14:03;99079.20;;;17.20
68952;BMP180;56000;51.146;17.112;2023-04-24T13:16:37;99077.40;;;17.06
68952;BMP180;56000;51.146;17.112;2023-04-24T13:19:10;99086.00;;;16.88
68952;BMP180;56000;51.146;17.112;2023-04-24T13:21:43;99081.60;;;16.60
68952;BMP180;56000;51.146;17.112;2023-04-24T13:24:16;99079.00;;;16.30
68952;BMP180;56000;51.146;17.112;2023-04-24T13:26:50;99077.60;;;16.10
68952;BMP180;56000;51.146;17.112;2023-04-24T13:29:23;99079.20;;;15.90
68952;BMP180;56000;51.146;17.112;2023-04-24T13:31:57;99083.60;;;15.70
68952;BMP180;56000;51.146;17.112;2023-04-24T13:34:30;99085.40;;;15.60
68952;BMP180;56000;51.146;17.112;2023-04-24T13:37:04;99084.00;;;15.50
68952;BMP180;56000;51.146;17.112;2023-04-24T13:39:37;99084.60;;;15.40
68952;BMP180;56000;51.146;17.112;2023-04-24T13:42:11;99076.20;;;15.30
68952;BMP180;56000;51.146;17.112;2023-04-24T13:44:44;99082.60;;;15.20
68952;BMP180;56000;51.146;17.112;2023-04-24T13:47:17;99078.40;;;15.14
68952;BMP180;56000;51.146;17.112;2023-04-24T13:49:50;99080.00;;;15.10
68952;BMP180;56000;51.146;17.112;2023-04-24T13:52:26;99075.40;;;15.10
68952;BMP180;56000;51.146;17.112;2023-04-24T13:55:00;99073.20;;;15.00
68952;BMP180;56000;51.146;17.112;2023-04-24T13:57:33;99079.40;;;14.90
68952;BMP180;56000;51.146;17.112;2023-04-24T14:00:09;99084.80;;;14.80
68952;BMP180;56000;51.146;17.112;2023-04-24T14:02:43;99083.60;;;14.80
68952;BMP180;56000;51.146;17.112;2023-04-24T14:05:17;99079.20;;;14.80
68952;BMP180;56000;51.146;17.112;2023-04-24T14:07:50;99079.40;;;14.78
68952;BMP180;56000;51.146;17.112;2023-04-24T14:10:23;99082.40;;;14.76
68952;BMP180;56000;51.146;17.112;2023-04-24T14:12:57;99081.40;;;14.80
68952;BMP180;56000;51.146;17.112;2023-04-24T14:15:30;99081.40;;;14.80
68952;BMP180;56000;51.146;17.112;2023-04-24T14:18:04;99079.00;;;14.80
68952;BMP180;56000;51.146;17.112;2023-04-24T14:20:37;99083.60;;;14.80
68952;BMP180;56000;51.146;17.112;2023-04-24T14:23:10;99078.20;;;14.80
68952;BMP180;56000;51.146;17.112;2023-04-24T14:25:44;99076.20;;;14.90
68952;BMP180;56000;51.146;17.112;2023-04-24T14:28:17;99074.00;;;14.90
68952;BMP180;56000;51.146;17.112;2023-04-24T14:30:50;99077.80;;;15.00
68952;BMP180;56000;51.146;17.112;2023-04-24T14:33:23;99081.20;;;15.00
68952;BMP180;56000;51.146;17.112;2023-04-24T14:35:57;99076.00;;;15.10
68952;BMP180;56000;51.146;17.112;2023-04-24T14:38:30;99083.20;;;15.10
68952;BMP180;56000;51.146;17.112;2023-04-24T14:41:03;99084.00;;;15.16
68952;BMP180;56000;51.146;17.112;2023-04-24T14:43:44;99083.00;;;15.20